Time;durP1;ratioP1;P1;durP2;ratioP2;P2;SDS_P1;SDS_P2;PMS_P1;PMS_P2;Temp;Humidity;BMP_temperature;BMP_pressure;BME280_temperature;BME280_humidity;BME280_pressure;Samples;Min_cycle;Max_cycle;Signal;HPM_P1;HPM_P2
2020/12/15 00:00:06;;;;;;;19.80;13.60;;;;;;;5.16;99.12;95200.47;5033575;28;20449;-79
2020/12/15 00:02:33;;;;;;;23.43;14.47;;;;;;;5.17;99.19;95204.75;5033262;28;20442;-79
2020/12/15 00:04:59;;;;;;;22.37;15.10;;;;;;;5.23;99.13;95200.97;5033345;28;20517;-80
2020/12/15 00:07:26;;;;;;;16.50;12.83;;;;;;;5.28;99.06;95207.56;5033274;28;20457;-80
2020/12/15 00:09:53;;;;;;;16.63;11.93;;;;;;;5.33;99.00;95199.50;5032862;28;20869;-80
2020/12/15 00:12:19;;;;;;;19.17;12.50;;;;;;;5.35;99.02;95205.44;5033056;28;20457;-79
2020/12/15 00:14:45;;;;;;;18.27;11.63;;;;;;;5.28;98.36;95201.53;5032969;28;20545;-79
2020/12/15 00:17:12;;;;;;;19.53;13.17;;;;;;;5.28;99.13;95198.94;4997914;28;20442;-79
2020/12/15 00:19:38;;;;;;;17.13;12.97;;;;;;;5.23;98.54;95206.19;5033072;28;20439;-79
2020/12/15 00:22:06;;;;;;;19.20;12.80;;;;;;;5.25;98.80;95207.75;5032887;28;20453;-79
2020/12/15 00:24:33;;;;;;;15.80;11.77;;;;;;;5.28;98.83;95204.97;5032902;28;20485;-80
2020/12/15 00:27:00;;;;;;;20.20;11.83;;;;;;;5.17;98.97;95201.31;5032923;28;20442;-80
2020/12/15 00:29:26;;;;;;;15.50;11.20;;;;;;;5.25;99.50;95210.38;5032621;28;20453;-80
2020/12/15 00:31:53;;;;;;;20.50;12.30;;;;;;;5.24;99.09;95210.47;5032722;28;20446;-80
2020/12/15 00:34:19;;;;;;;18.00;12.10;;;;;;;5.31;98.99;95211.75;5032729;28;20525;-79
2020/12/15 00:36:45;;;;;;;20.00;12.40;;;;;;;5.44;99.24;95204.88;5032637;28;20828;-80
2020/12/15 00:39:12;;;;;;;16.80;11.87;;;;;;;5.56;99.68;95211.97;5032495;28;20450;-80
2020/12/15 00:41:39;;;;;;;17.20;11.33;;;;;;;5.60;98.15;95204.81;5032977;28;20438;-79
2020/12/15 00:44:05;;;;;;;13.80;11.00;;;;;;;5.67;97.43;95205.28;5032267;28;20490;-79
2020/12/15 00:46:32;;;;;;;18.10;13.13;;;;;;;5.77;97.86;95202.00;5032638;28;20455;-79
2020/12/15 00:48:58;;;;;;;21.00;12.67;;;;;;;5.85;96.27;95202.41;5032337;28;20434;-80
2020/12/15 00:51:25;;;;;;;19.80;12.63;;;;;;;5.92;97.00;95204.66;5032664;28;20875;-80
2020/12/15 00:53:51;;;;;;;19.20;12.93;;;;;;;5.98;96.89;95205.09;5032469;28;20460;-79
2020/12/15 00:56:17;;;;;;;14.47;10.33;;;;;;;6.02;96.29;95196.16;5032127;28;20446;-80
2020/12/15 00:58:45;;;;;;;15.27;10.87;;;;;;;6.09;95.63;95197.47;5032156;28;20442;-79
2020/12/15 01:01:12;;;;;;;16.03;10.77;;;;;;;6.15;95.22;95191.88;5032142;28;20449;-79
2020/12/15 01:03:39;;;;;;;18.77;11.57;;;;;;;6.21;94.32;95191.50;5032493;28;20481;-79
2020/12/15 01:06:06;;;;;;;13.40;10.43;;;;;;;6.26;94.68;95182.53;5032129;28;20437;-80
2020/12/15 01:08:32;;;;;;;12.97;10.47;;;;;;;6.30;93.70;95194.44;5032035;28;20449;-80
2020/12/15 01:10:59;;;;;;;12.20;9.50;;;;;;;6.30;93.62;95189.22;5031941;28;20448;-79
2020/12/15 01:13:25;;;;;;;15.40;10.20;;;;;;;6.30;93.93;95189.22;5032186;28;20825;-79
2020/12/15 01:15:53;;;;;;;12.07;10.10;;;;;;;6.36;93.55;95181.88;5032253;28;20443;-80
2020/12/15 01:18:19;;;;;;;13.90;10.10;;;;;;;6.36;93.64;95183.63;5032198;28;20442;-80
2020/12/15 01:20:46;;;;;;;14.70;10.17;;;;;;;6.37;93.13;95178.34;4997186;28;20434;-79
2020/12/15 01:23:13;;;;;;;15.83;9.60;;;;;;;6.37;93.53;95186.16;5032013;28;20498;-80
2020/12/15 01:25:39;;;;;;;13.50;11.00;;;;;;;6.37;93.40;95190.53;5032071;28;20446;-80
2020/12/15 01:28:06;;;;;;;14.40;10.80;;;;;;;6.38;92.89;95197.44;5032206;28;20446;-80
2020/12/15 01:30:32;;;;;;;14.03;9.43;;;;;;;6.37;93.16;95191.38;5031762;28;20533;-79
2020/12/15 01:32:59;;;;;;;14.90;9.27;;;;;;;6.37;93.17;95191.38;5032049;28;20438;-80
2020/12/15 01:35:26;;;;;;;14.50;10.40;;;;;;;6.31;93.80;95191.75;5031883;28;20434;-80
2020/12/15 01:37:52;;;;;;;16.10;10.73;;;;;;;6.28;93.91;95201.53;5031692;28;20453;-80
2020/12/15 01:40:18;;;;;;;17.70;11.67;;;;;;;6.30;93.21;95204.88;5031800;28;20846;-80
2020/12/15 01:42:44;;;;;;;19.17;13.00;;;;;;;6.30;93.81;95199.66;5031647;28;20458;-78
2020/12/15 01:45:11;;;;;;;16.97;12.07;;;;;;;6.25;93.14;95202.56;5031676;28;21001;-79
2020/12/15 01:47:37;;;;;;;12.90;11.50;;;;;;;6.19;93.14;95197.72;5031708;28;20530;-78
2020/12/15 01:50:05;;;;;;;19.83;11.80;;;;;;;6.07;93.67;95193.28;5031860;28;20442;-78
2020/12/15 01:52:32;;;;;;;16.53;11.40;;;;;;;5.94;93.49;95197.59;5031826;28;20438;-78
2020/12/15 01:55:00;;;;;;;16.73;11.53;;;;;;;5.87;94.95;95200.53;5031359;28;20438;-78
2020/12/15 01:57:27;;;;;;;16.43;11.40;;;;;;;5.81;95.43;95207.91;5031891;28;20504;-78
2020/12/15 01:59:53;;;;;;;24.20;12.07;;;;;;;5.74;95.16;95203.97;5031671;28;20440;-79
2020/12/15 02:02:20;;;;;;;16.50;10.23;;;;;;;5.69;95.75;95196.44;5031692;28;20454;-78
2020/12/15 02:04:47;;;;;;;16.07;10.37;;;;;;;5.57;95.71;95203.25;5031522;28;20492;-80
2020/12/15 02:07:15;;;;;;;13.87;10.67;;;;;;;5.42;96.33;95206.75;5031476;28;20446;-78
2020/12/15 02:09:41;;;;;;;18.10;11.47;;;;;;;5.32;97.25;95197.81;4997200;28;20446;-78
2020/12/15 02:12:08;;;;;;;15.17;10.33;;;;;;;5.31;96.95;95198.75;5031636;28;20450;-78
2020/12/15 02:14:34;;;;;;;19.77;11.97;;;;;;;5.30;97.13;95202.28;5031720;28;20448;-78
2020/12/15 02:17:03;;;;;;;17.83;9.87;;;;;;;5.25;96.96;95204.31;5013055;28;20462;-78
2020/12/15 02:19:29;;;;;;;19.60;12.43;;;;;;;5.20;97.21;95206.34;5031776;28;20454;-78
2020/12/15 02:22:00;;;;;;;18.83;11.03;;;;;;;5.25;98.21;95206.94;5034800;28;20450;-79
2020/12/15 02:24:27;;;;;;;15.67;11.33;;;;;;;5.31;98.36;95203.97;5034887;28;20850;-79
2020/12/15 02:26:54;;;;;;;17.37;10.90;;;;;;;5.30;96.92;95202.28;4999916;28;20450;-79
2020/12/15 02:29:21;;;;;;;15.23;10.43;;;;;;;5.33;96.93;95212.50;5035156;28;20472;-79
2020/12/15 02:31:47;;;;;;;16.33;10.67;;;;;;;5.41;96.83;95209.44;5000228;28;20856;-79
2020/12/15 02:34:14;;;;;;;14.90;10.90;;;;;;;5.43;96.99;95208.41;5035007;28;20450;-79
2020/12/15 02:36:42;;;;;;;16.40;11.00;;;;;;;5.45;96.69;95206.56;5034863;28;20798;-79
2020/12/15 02:39:10;;;;;;;14.83;9.80;;;;;;;5.52;96.51;95214.88;5034843;28;20529;-79
2020/12/15 02:41:37;;;;;;;16.13;9.57;;;;;;;5.46;96.09;95212.59;5034798;28;20945;-79
2020/12/15 02:44:04;;;;;;;17.43;10.07;;;;;;;5.52;96.48;95210.50;5034668;28;20474;-79
2020/12/15 02:46:31;;;;;;;15.70;10.20;;;;;;;5.41;96.49;95215.47;5034670;28;20799;-79
2020/12/15 02:48:57;;;;;;;15.40;9.90;;;;;;;5.48;96.29;95206.38;5034536;28;20442;-79
2020/12/15 02:51:24;;;;;;;14.53;9.40;;;;;;;5.52;96.57;95217.47;5034690;28;20449;-79
2020/12/15 02:53:51;;;;;;;10.10;7.80;;;;;;;5.62;95.67;95210.78;5034435;28;20957;-79
2020/12/15 02:56:20;;;;;;;15.40;10.10;;;;;;;5.63;95.66;95209.00;5034595;28;20446;-79
2020/12/15 02:58:46;;;;;;;12.60;9.10;;;;;;;5.69;95.74;95208.63;5034413;28;20942;-79
2020/12/15 03:01:13;;;;;;;11.50;8.40;;;;;;;5.64;95.69;95213.28;5034355;28;20453;-78
2020/12/15 03:03:39;;;;;;;12.60;9.33;;;;;;;5.64;95.26;95211.50;5034196;28;21016;-79
2020/12/15 03:06:05;;;;;;;13.37;9.10;;;;;;;5.62;95.71;95213.38;5034489;28;20439;-79
2020/12/15 03:08:32;;;;;;;14.47;9.37;;;;;;;5.60;95.81;95215.22;5034440;28;20445;-79
2020/12/15 03:10:58;;;;;;;12.77;8.80;;;;;;;5.61;94.99;95222.13;5034333;28;20534;-79
2020/12/15 03:13:25;;;;;;;13.93;9.20;;;;;;;5.65;95.93;95217.56;5034155;28;20525;-79
2020/12/15 03:15:52;;;;;;;10.10;8.10;;;;;;;5.70;95.31;95225.91;5034188;28;20472;-79
2020/12/15 03:18:18;;;;;;;13.63;9.77;;;;;;;5.75;96.14;95221.25;5033917;28;20441;-79
2020/12/15 03:20:47;;;;;;;12.03;8.67;;;;;;;5.84;95.27;95228.53;5033909;28;20454;-79
2020/12/15 03:23:14;;;;;;;13.20;9.70;;;;;;;5.89;94.91;95229.97;4999836;28;20486;-79
2020/12/15 03:25:40;;;;;;;13.23;9.60;;;;;;;5.87;94.84;95229.19;4999379;28;20955;-79
2020/12/15 03:28:07;;;;;;;13.23;9.40;;;;;;;5.86;93.74;95237.09;5034024;28;20457;-79
2020/12/15 03:30:35;;;;;;;14.97;8.97;;;;;;;5.81;94.48;95237.38;5033699;28;20442;-79
2020/12/15 03:33:02;;;;;;;15.93;10.70;;;;;;;5.77;94.48;95238.47;5033626;28;20504;-79
2020/12/15 03:35:28;;;;;;;20.67;11.50;;;;;;;5.79;94.55;95235.81;5033713;28;20453;-79
2020/12/15 03:37:55;;;;;;;30.50;13.23;;;;;;;5.77;95.39;95240.22;5033688;28;20865;-79
2020/12/15 03:40:22;;;;;;;22.20;13.20;;;;;;;5.71;94.89;95243.22;5034251;28;20496;-79
2020/12/15 03:42:48;;;;;;;15.67;10.00;;;;;;;5.70;95.46;95233.72;5033526;28;20446;-79
2020/12/15 03:45:15;;;;;;;16.83;11.40;;;;;;;5.56;94.69;95251.03;5033458;28;20474;-79
2020/12/15 03:47:43;;;;;;;15.30;10.03;;;;;;;5.49;95.01;95238.44;5033657;28;20531;-79
2020/12/15 03:50:09;;;;;;;18.10;10.60;;;;;;;5.47;95.74;95251.53;5033247;28;21029;-79
2020/12/15 03:52:37;;;;;;;15.27;10.57;;;;;;;5.50;95.86;95245.34;5033348;28;20478;-79
2020/12/15 03:55:04;;;;;;;12.53;9.07;;;;;;;5.48;95.61;95258.44;5033627;28;20474;-79
2020/12/15 03:57:30;;;;;;;14.53;10.47;;;;;;;5.38;95.57;95256.47;5033358;28;20521;-79
2020/12/15 03:59:57;;;;;;;13.60;9.23;;;;;;;5.37;96.73;95266.03;4965918;28;20926;-79
2020/12/15 04:02:23;;;;;;;13.57;10.03;;;;;;;5.42;96.43;95274.41;5033031;28;20449;-79
2020/12/15 04:04:51;;;;;;;14.20;9.33;;;;;;;5.43;96.30;95260.47;5014548;28;20489;-79
2020/12/15 04:07:18;;;;;;;13.60;9.53;;;;;;;5.52;96.72;95269.53;5032973;28;20819;-79
2020/12/15 04:09:45;;;;;;;14.43;10.27;;;;;;;5.53;95.35;95266.81;4998282;28;20484;-79
2020/12/15 04:12:12;;;;;;;12.90;9.87;;;;;;;5.55;96.04;95270.16;5033051;28;20452;-79
2020/12/15 04:14:39;;;;;;;13.33;9.47;;;;;;;5.51;94.67;95267.84;5032786;28;20442;-79
2020/12/15 04:17:06;;;;;;;14.17;8.63;;;;;;;5.47;95.25;95272.38;5033044;28;20442;-79
2020/12/15 04:19:32;;;;;;;14.37;9.30;;;;;;;5.48;95.39;95279.25;5032885;28;20441;-79
2020/12/15 04:21:59;;;;;;;13.77;8.67;;;;;;;5.53;95.16;95272.03;5032936;28;20453;-79
2020/12/15 04:24:26;;;;;;;15.80;11.17;;;;;;;5.48;95.02;95281.84;5032879;28;20490;-79
2020/12/15 04:26:52;;;;;;;13.00;8.70;;;;;;;5.49;94.59;95282.69;5032627;28;20798;-79
2020/12/15 04:29:18;;;;;;;9.53;8.53;;;;;;;5.37;94.65;95293.81;5033493;28;20453;-79
2020/12/15 04:31:45;;;;;;;14.73;9.53;;;;;;;5.28;95.77;95293.44;5032658;28;20812;-79
2020/12/15 04:34:11;;;;;;;12.00;8.80;;;;;;;5.27;96.18;95296.13;5032860;28;20449;-79
2020/12/15 04:36:38;;;;;;;15.17;10.20;;;;;;;5.24;96.72;95299.75;5032608;28;20446;-78
2020/12/15 04:39:05;;;;;;;14.63;9.40;;;;;;;5.20;97.27;95295.66;5032551;28;20450;-79
2020/12/15 04:41:32;;;;;;;12.10;9.10;;;;;;;5.18;97.72;95299.22;5032273;28;20465;-79
2020/12/15 04:43:59;;;;;;;11.27;8.83;;;;;;;5.26;97.50;95299.66;5032073;28;20485;-79
2020/12/15 04:46:28;;;;;;;14.40;9.23;;;;;;;5.14;97.45;95298.56;5032436;28;20442;-79
2020/12/15 04:49:02;;;;;;;12.37;8.60;;;;;;;5.20;97.49;95302.59;5013888;28;20461;-79
2020/12/15 04:51:34;;;;;;;11.77;9.27;;;;;;;5.25;97.50;95300.59;5032226;28;20957;-79
2020/12/15 04:54:03;;;;;;;13.43;8.87;;;;;;;5.28;97.21;95305.59;4997620;28;20473;-79
2020/12/15 04:56:32;;;;;;;14.53;9.20;;;;;;;5.32;96.83;95316.66;4997811;28;20507;-79
2020/12/15 04:58:59;;;;;;;10.70;8.40;;;;;;;5.38;96.49;95322.34;5032239;28;20453;-79
2020/12/15 05:01:26;;;;;;;12.27;8.83;;;;;;;5.36;96.87;95316.41;5032665;28;20492;-79
2020/12/15 05:03:52;;;;;;;13.80;8.87;;;;;;;5.39;96.42;95326.63;5032116;28;20481;-79
2020/12/15 05:06:25;;;;;;;11.70;8.47;;;;;;;5.40;96.54;95317.91;4997224;28;20474;-79
2020/12/15 05:08:53;;;;;;;13.60;9.00;;;;;;;5.45;96.71;95328.88;5013495;28;20525;-79
2020/12/15 05:11:19;;;;;;;12.00;9.17;;;;;;;5.48;95.43;95330.47;5032602;28;20446;-79
2020/12/15 05:13:46;;;;;;;9.97;7.60;;;;;;;5.46;95.94;95332.31;5032135;28;20454;-79
2020/12/15 05:16:13;;;;;;;12.23;8.70;;;;;;;5.50;96.34;95334.69;4997412;28;20453;-79
2020/12/15 05:18:39;;;;;;;11.80;8.70;;;;;;;5.47;96.31;95332.22;5031953;28;20916;-79
2020/12/15 05:21:16;;;;;;;14.20;9.80;;;;;;;5.54;96.51;95336.16;4997553;28;20938;-79
2020/12/15 05:23:49;;;;;;;14.13;9.73;;;;;;;5.57;96.17;95333.38;5032243;28;20478;-78
2020/12/15 05:26:22;;;;;;;20.03;9.90;;;;;;;5.57;94.85;95341.19;5032009;28;20957;-79
2020/12/15 05:29:03;;;;;;;29.97;11.67;;;;;;;5.60;95.38;95343.63;5032652;28;20438;-79
2020/12/15 05:31:30;;;;;;;18.43;9.37;;;;;;;5.59;95.48;95343.72;5032267;28;20461;-78
2020/12/15 05:33:58;;;;;;;15.73;9.33;;;;;;;5.56;94.80;95347.34;5032006;28;20450;-78
2020/12/15 05:36:24;;;;;;;21.13;10.67;;;;;;;5.63;96.07;95345.19;5032330;28;20470;-80
2020/12/15 05:39:05;;;;;;;20.40;11.80;;;;;;;5.72;96.03;95351.63;4997197;28;20933;-80
2020/12/15 05:41:32;;;;;;;17.47;11.50;;;;;;;5.80;95.96;95352.88;5033413;28;20452;-77
2020/12/15 05:44:00;;;;;;;19.97;11.70;;;;;;;5.86;95.05;95360.31;5031866;28;20482;-79
2020/12/15 05:46:28;;;;;;;18.10;11.10;;;;;;;5.80;93.93;95363.28;5031852;28;20441;-79
2020/12/15 05:49:02;;;;;;;14.17;9.70;;;;;;;5.80;94.37;95357.25;5032684;28;20457;-81
2020/12/15 05:51:38;;;;;;;12.57;9.73;;;;;;;5.86;93.91;95364.69;5032768;28;20446;-79
2020/12/15 05:54:09;;;;;;;17.17;10.30;;;;;;;5.89;94.01;95362.78;5032893;28;20457;-81
2020/12/15 05:56:37;;;;;;;17.60;11.60;;;;;;;5.98;93.97;95361.38;5035207;28;20753;-81
2020/12/15 05:59:18;;;;;;;18.50;11.93;;;;;;;5.98;93.56;95356.19;5036001;28;20445;-81
2020/12/15 06:01:45;;;;;;;17.93;12.00;;;;;;;5.97;93.92;95367.53;5036099;28;20436;-81
2020/12/15 06:04:13;;;;;;;15.90;11.90;;;;;;;6.01;93.15;95366.41;5036333;28;20486;-81
2020/12/15 06:06:41;;;;;;;31.33;20.80;;;;;;;6.66;100.00;95347.72;5035794;28;20442;-79
2020/12/15 06:09:09;;;;;;;61.67;32.83;;;;;;;8.25;100.00;95366.91;5035694;28;20449;-89
2020/12/15 06:11:39;;;;;;;33.13;19.37;;;;;;;9.63;94.73;95364.09;5036500;28;20446;-82
2020/12/15 06:14:05;;;;;;;19.90;14.77;;;;;;;10.68;86.39;95378.91;5036219;28;20820;-81
2020/12/15 06:16:33;;;;;;;17.40;13.57;;;;;;;11.62;82.46;95374.03;5035926;28;20458;-81
2020/12/15 06:18:59;;;;;;;13.90;11.50;;;;;;;13.74;70.86;95373.50;5037349;28;20816;-85
2020/12/15 06:21:27;;;;;;;10.67;8.90;;;;;;;13.45;63.70;95365.53;5001329;28;20577;-85
2020/12/15 06:24:01;;;;;;;11.60;9.27;;;;;;;12.88;63.25;95372.25;5034971;28;20485;-80
2020/12/15 06:26:28;;;;;;;14.57;10.70;;;;;;;12.30;64.12;95370.16;5033203;28;20529;-81
2020/12/15 06:28:59;;;;;;;15.20;10.50;;;;;;;11.54;65.90;95360.66;5034807;28;20450;-81
2020/12/15 06:31:26;;;;;;;30.80;22.90;;;;;;;10.93;67.81;95360.28;5035369;28;20458;-82
2020/12/15 06:34:01;;;;;;;24.50;15.70;;;;;;;10.45;70.07;95373.66;5035161;28;20457;-80
2020/12/15 06:36:29;;;;;;;38.37;22.17;;;;;;;10.08;71.52;95375.56;5035165;28;20441;-85
2020/12/15 06:38:56;;;;;;;30.03;19.30;;;;;;;9.83;73.84;95373.97;5034884;28;20449;-80
2020/12/15 06:41:24;;;;;;;17.20;12.90;;;;;;;9.62;75.95;95376.38;5035279;28;20445;-81
2020/12/15 06:43:51;;;;;;;17.50;12.03;;;;;;;9.36;78.20;95366.94;5035348;28;20511;-82
2020/12/15 06:46:27;;;;;;;21.07;14.37;;;;;;;9.23;78.71;95382.69;5034671;28;20451;-81
2020/12/15 06:48:54;;;;;;;20.10;14.47;;;;;;;9.08;79.61;95386.41;5037934;28;20537;-79
2020/12/15 06:51:30;;;;;;;23.00;15.80;;;;;;;8.91;80.31;95381.53;5035355;28;20448;-81
2020/12/15 06:54:01;;;;;;;21.50;15.03;;;;;;;8.72;81.08;95382.00;5035750;28;20444;-78
2020/12/15 06:56:29;;;;;;;23.30;15.00;;;;;;;8.57;81.61;95381.25;5035329;28;20473;-81
2020/12/15 06:59:00;;;;;;;25.67;18.73;;;;;;;8.40;82.26;95378.16;5035714;28;20530;-79
2020/12/15 07:01:27;;;;;;;24.10;17.03;;;;;;;8.29;83.27;95384.88;5038173;28;20450;-80
2020/12/15 07:03:56;;;;;;;30.13;19.00;;;;;;;8.21;83.69;95388.97;5037345;28;20816;-79
2020/12/15 07:06:22;;;;;;;33.20;19.47;;;;;;;8.12;83.96;95384.38;5034235;28;20462;-80
2020/12/15 07:09:02;;;;;;;26.17;14.93;;;;;;;8.04;85.06;95383.09;5035070;28;20457;-82
2020/12/15 07:11:29;;;;;;;16.97;11.80;;;;;;;7.97;85.55;95381.84;5034492;28;20454;-81
2020/12/15 07:13:59;;;;;;;18.63;12.27;;;;;;;7.92;85.76;95389.16;5034292;28;20877;-81
2020/12/15 07:16:27;;;;;;;20.13;14.57;;;;;;;7.94;86.41;95391.66;5033872;28;20445;-80
2020/12/15 07:18:54;;;;;;;16.43;14.20;;;;;;;7.94;86.24;95392.50;5034129;28;20675;-81
2020/12/15 07:21:23;;;;;;;16.93;13.83;;;;;;;7.96;86.48;95395.84;5034642;28;20455;-80
2020/12/15 07:23:50;;;;;;;23.87;15.07;;;;;;;7.92;86.87;95397.00;5034313;28;20502;-80
2020/12/15 07:26:18;;;;;;;17.73;14.97;;;;;;;7.87;85.56;95404.28;5034418;28;20447;-81
2020/12/15 07:28:47;;;;;;;25.27;15.17;;;;;;;7.87;85.95;95406.91;5034367;28;20450;-81
2020/12/15 07:31:14;;;;;;;17.63;12.17;;;;;;;7.84;86.32;95419.34;5030929;28;20453;-80
2020/12/15 07:33:41;;;;;;;16.40;12.83;;;;;;;7.80;85.59;95410.00;5033432;28;20474;-80
2020/12/15 07:36:16;;;;;;;16.63;12.03;;;;;;;7.77;85.64;95417.09;5033796;28;20855;-80
2020/12/15 07:38:44;;;;;;;14.27;11.07;;;;;;;7.80;85.58;95421.28;5033340;28;20495;-81
2020/12/15 07:41:15;;;;;;;17.43;11.77;;;;;;;7.83;85.64;95417.66;5033292;28;20448;-81
2020/12/15 07:43:53;;;;;;;17.97;12.60;;;;;;;7.85;86.18;95418.41;5032767;28;20488;-80
2020/12/15 07:46:23;;;;;;;26.80;17.10;;;;;;;7.18;87.80;95434.00;5032612;28;20466;-81
2020/12/15 07:48:51;;;;;;;24.10;17.10;;;;;;;6.75;88.98;95426.22;5033188;28;20465;-81
2020/12/15 07:51:18;;;;;;;29.57;18.70;;;;;;;6.39;90.99;95429.28;5034194;28;20454;-80
2020/12/15 07:53:51;;;;;;;29.30;19.67;;;;;;;6.21;92.47;95439.03;4998440;28;20796;-80
2020/12/15 07:56:19;;;;;;;32.40;20.00;;;;;;;6.13;93.40;95435.22;5033762;28;20450;-84
2020/12/15 07:58:51;;;;;;;33.47;19.73;;;;;;;6.10;93.46;95443.22;5033843;28;20445;-83
2020/12/15 08:01:22;;;;;;;27.97;19.20;;;;;;;6.11;93.77;95445.72;5033718;28;20542;-84
2020/12/15 08:04:00;;;;;;;27.57;19.53;;;;;;;5.91;95.28;95451.25;5033412;28;20446;-81
2020/12/15 08:06:28;;;;;;;29.00;20.77;;;;;;;5.68;95.68;95459.47;5034522;28;20434;-82
2020/12/15 08:08:55;;;;;;;31.83;19.70;;;;;;;5.68;96.65;95446.47;5033423;28;20812;-82
2020/12/15 08:11:22;;;;;;;26.87;17.80;;;;;;;5.70;97.11;95450.66;5032451;28;20497;-82
2020/12/15 08:13:48;;;;;;;27.43;17.40;;;;;;;5.56;96.93;95451.44;5032572;28;20856;-80
2020/12/15 08:16:15;;;;;;;34.60;20.60;;;;;;;5.57;97.99;95449.69;5033125;28;20454;-81
2020/12/15 08:18:43;;;;;;;32.20;20.37;;;;;;;5.57;98.14;95460.94;5032527;28;20956;-80
2020/12/15 08:21:15;;;;;;;34.03;20.03;;;;;;;5.57;98.59;95465.31;5033009;28;20460;-79
2020/12/15 08:23:47;;;;;;;38.30;19.20;;;;;;;5.63;99.35;95459.75;5032912;28;20490;-80
2020/12/15 08:26:15;;;;;;;35.90;20.43;;;;;;;5.66;98.88;95466.53;5032858;28;20968;-79
2020/12/15 08:28:43;;;;;;;34.23;21.07;;;;;;;5.56;97.88;95459.25;5032751;28;20803;-80
2020/12/15 08:31:10;;;;;;;28.50;18.90;;;;;;;5.51;98.41;95468.25;5032596;28;20446;-79
2020/12/15 08:33:37;;;;;;;27.20;17.30;;;;;;;5.64;97.95;95471.00;5032778;28;20458;-79
2020/12/15 08:36:05;;;;;;;34.57;19.50;;;;;;;5.77;97.50;95471.97;5033211;28;20775;-80
2020/12/15 08:38:34;;;;;;;29.93;18.77;;;;;;;5.69;97.59;95471.56;5033814;28;20450;-80
2020/12/15 08:41:02;;;;;;;34.10;20.90;;;;;;;5.71;97.07;95469.72;5035271;28;20444;-79
2020/12/15 08:43:29;;;;;;;32.53;20.17;;;;;;;5.79;97.50;95470.16;5035991;28;20464;-79
2020/12/15 08:45:56;;;;;;;23.97;19.27;;;;;;;5.84;97.12;95474.16;5036291;28;20486;-78
2020/12/15 08:48:24;;;;;;;38.43;19.90;;;;;;;5.80;95.76;95466.63;5036073;28;20450;-79
2020/12/15 08:50:51;;;;;;;37.40;19.80;;;;;;;5.68;97.83;95465.53;5033398;28;20445;-80
2020/12/15 08:53:20;;;;;;;36.23;22.50;;;;;;;5.61;98.23;95466.81;5032332;28;20434;-80
2020/12/15 08:55:48;;;;;;;31.23;20.87;;;;;;;5.74;98.30;95462.56;5032728;28;20430;-80
2020/12/15 08:58:15;;;;;;;39.80;21.97;;;;;;;5.88;98.49;95467.00;5032340;28;20525;-83
2020/12/15 09:00:43;;;;;;;37.33;21.77;;;;;;;6.10;100.00;95469.25;5032393;28;20446;-82
2020/12/15 09:03:11;;;;;;;36.97;22.40;;;;;;;6.12;99.01;95465.63;5032683;28;20819;-80
2020/12/15 09:05:51;;;;;;;29.77;20.23;;;;;;;5.88;97.36;95475.66;5032658;28;20600;-84
2020/12/15 09:08:19;;;;;;;38.63;22.17;;;;;;;5.99;96.83;95469.84;5031988;28;20454;-80
2020/12/15 09:10:45;;;;;;;34.90;21.10;;;;;;;5.93;96.07;95472.00;5032407;28;20469;-77
2020/12/15 09:13:12;;;;;;;37.80;22.17;;;;;;;5.97;95.68;95461.31;5013174;28;20446;-82
2020/12/15 09:15:49;;;;;;;35.07;22.13;;;;;;;6.19;95.37;95459.13;5032865;28;20548;-88
2020/12/15 09:18:16;;;;;;;40.13;24.23;;;;;;;6.28;94.88;95464.72;5032262;28;20445;-81
2020/12/15 09:20:43;;;;;;;27.33;19.30;;;;;;;6.14;93.67;95460.34;5032187;28;21001;-82
2020/12/15 09:23:10;;;;;;;37.67;21.63;;;;;;;6.34;94.76;95452.16;5032062;28;20477;-82
2020/12/15 09:25:37;;;;;;;36.13;21.80;;;;;;;6.49;93.31;95456.47;5032041;28;20850;-84
2020/12/15 09:28:04;;;;;;;29.63;20.90;;;;;;;6.49;93.15;95453.03;5032587;28;20454;-83
2020/12/15 09:30:30;;;;;;;31.03;20.10;;;;;;;6.46;92.46;95461.88;5044548;28;20481;-82
2020/12/15 09:32:57;;;;;;;41.67;23.30;;;;;;;6.50;92.41;95446.88;5056672;28;20445;-83
2020/12/15 09:35:23;;;;;;;40.93;22.60;;;;;;;6.68;92.45;95456.22;5057011;28;20456;-83
2020/12/15 09:37:50;;;;;;;36.77;21.90;;;;;;;6.79;92.50;95453.78;5056724;28;20501;-84
2020/12/15 09:40:16;;;;;;;33.23;22.50;;;;;;;6.93;92.24;95452.09;5058341;28;20474;-82
2020/12/15 09:42:45;;;;;;;37.10;23.30;;;;;;;7.05;91.43;95464.41;5056509;28;20449;-82
2020/12/15 09:45:12;;;;;;;46.43;25.83;;;;;;;7.12;90.85;95455.25;5056953;28;20499;-83
2020/12/15 09:47:42;;;;;;;38.00;23.47;;;;;;;7.21;90.30;95444.22;5056586;28;20457;-83
2020/12/15 09:50:09;;;;;;;35.30;24.03;;;;;;;7.31;90.01;95445.34;5056450;28;20504;-82
2020/12/15 09:52:35;;;;;;;40.07;23.20;;;;;;;7.38;89.89;95456.25;5057277;28;20442;-82
2020/12/15 09:55:02;;;;;;;45.53;27.30;;;;;;;7.50;90.30;95450.22;5037816;28;20822;-81
2020/12/15 09:57:28;;;;;;;31.97;21.90;;;;;;;7.60;90.14;95446.09;5055404;28;20437;-80
2020/12/15 09:59:55;;;;;;;38.93;24.67;;;;;;;7.70;89.98;95446.34;5020643;28;20441;-81
2020/12/15 10:02:22;;;;;;;38.13;24.67;;;;;;;7.77;89.55;95439.78;5055831;28;20475;-81
2020/12/15 10:04:48;;;;;;;31.63;22.63;;;;;;;7.85;88.31;95437.53;5055657;28;20560;-80
2020/12/15 10:07:15;;;;;;;31.87;21.83;;;;;;;7.96;87.73;95442.88;5020709;28;20442;-81
2020/12/15 10:09:41;;;;;;;38.30;23.83;;;;;;;8.02;87.26;95434.63;5055874;28;20461;-80
2020/12/15 10:12:07;;;;;;;37.70;24.30;;;;;;;8.14;86.89;95429.53;5055458;28;20446;-81
2020/12/15 10:14:35;;;;;;;33.40;22.87;;;;;;;8.16;86.78;95432.91;5055722;28;20452;-81
2020/12/15 10:17:02;;;;;;;33.17;22.93;;;;;;;8.22;85.88;95440.31;5049629;28;20482;-80
2020/12/15 10:19:28;;;;;;;38.27;24.13;;;;;;;8.19;86.07;95437.91;5034050;28;20447;-82
2020/12/15 10:21:55;;;;;;;41.23;23.13;;;;;;;8.26;86.70;95432.16;5035543;28;20862;-82
2020/12/15 10:24:21;;;;;;;32.70;21.57;;;;;;;8.25;86.56;95421.81;5035855;28;20512;-82
2020/12/15 10:26:48;;;;;;;36.00;21.83;;;;;;;8.32;87.02;95430.91;5035096;28;20450;-82
2020/12/15 10:29:14;;;;;;;33.50;21.20;;;;;;;8.33;86.00;95419.50;5035274;28;20459;-80
2020/12/15 10:31:40;;;;;;;28.60;19.60;;;;;;;8.44;85.48;95427.50;5035879;28;20453;-82
2020/12/15 10:34:08;;;;;;;29.07;20.33;;;;;;;8.54;85.00;95431.16;5035036;28;20445;-83
2020/12/15 10:36:34;;;;;;;30.17;21.77;;;;;;;8.67;85.85;95431.16;5035154;28;20559;-83
2020/12/15 10:39:00;;;;;;;29.63;22.07;;;;;;;8.84;86.33;95430.00;5035343;28;20443;-83
2020/12/15 10:41:27;;;;;;;31.07;21.90;;;;;;;8.89;85.69;95427.91;5034312;28;20448;-83
2020/12/15 10:43:53;;;;;;;33.27;20.00;;;;;;;8.82;81.37;95431.91;5035353;28;20542;-83
2020/12/15 10:46:24;;;;;;;27.53;18.90;;;;;;;8.82;82.17;95432.72;5034654;28;20671;-82
2020/12/15 10:48:52;;;;;;;35.50;22.07;;;;;;;8.87;83.15;95424.56;5046490;28;20518;-80
2020/12/15 10:51:19;;;;;;;32.93;21.77;;;;;;;8.81;82.80;95420.59;5048342;28;20470;-83
2020/12/15 10:53:46;;;;;;;26.07;18.80;;;;;;;8.86;82.81;95422.88;5035225;28;20462;-83
2020/12/15 10:56:14;;;;;;;163.03;80.53;;;;;;;8.85;82.25;95421.22;5036649;28;20469;-82
2020/12/15 10:58:40;;;;;;;46.23;26.47;;;;;;;8.83;82.79;95417.88;5037077;28;20452;-81
2020/12/15 11:01:07;;;;;;;25.63;18.20;;;;;;;8.83;82.12;95413.47;5035198;28;20943;-82
2020/12/15 11:03:34;;;;;;;28.03;17.50;;;;;;;8.86;82.24;95408.00;5004373;28;20477;-81
2020/12/15 11:06:02;;;;;;;22.77;17.17;;;;;;;8.90;82.28;95401.63;5036592;28;20511;-84
2020/12/15 11:08:29;;;;;;;25.57;17.63;;;;;;;8.90;81.68;95401.63;5035829;28;20450;-81
2020/12/15 11:10:56;;;;;;;29.70;18.67;;;;;;;8.96;82.20;95409.06;5038131;28;20454;-80
2020/12/15 11:13:22;;;;;;;23.03;17.60;;;;;;;9.02;81.76;95402.56;5036804;28;20495;-82
2020/12/15 11:15:49;;;;;;;24.47;16.43;;;;;;;8.97;80.84;95399.44;5017788;28;20884;-81
2020/12/15 11:18:16;;;;;;;30.33;19.73;;;;;;;9.03;80.53;95403.41;5035749;28;20799;-82
2020/12/15 11:20:42;;;;;;;28.63;18.20;;;;;;;9.11;80.78;95401.06;5035690;28;20443;-81
2020/12/15 11:23:09;;;;;;;24.90;18.27;;;;;;;9.15;82.04;95397.28;5036600;28;20941;-83
2020/12/15 11:25:36;;;;;;;21.13;17.47;;;;;;;9.16;81.13;95386.69;5035332;28;20846;-80
2020/12/15 11:28:03;;;;;;;24.23;16.00;;;;;;;9.12;80.59;95387.88;5035256;28;20452;-82